x

Ne Puerto Rico - 170 Nm Nne Of San Juan, P R (41043) Wave Buoy

11:50am - Wed 1st Jul 2015 All times are AST. -4 hours from GMT.

  • Sig Wave height 7.9ft
  • Swell Direction
  • Peak Period 9s
  • Average Period 6s
  • Wind
    20mph, 25mph gusts
  • Sea Temp 82°f
  • Air Temp 82°f
  • Sea Pressure 1021.3mb
  • Ne Puerto Rico  - 170 Nm Nne Of San Juan,  P R
  • Ne Puerto Rico  - 170 Nm Nne Of San Juan,  P R

More Historic Weather Station data

Upgrade to MSW Pro to gain access to the past 30 days of data for over 8000 Wavebouys and Weather Stations around the globe.

Join Pro

Comparision Forecast

View Surf forecast
   
Wed 07/01 11:50am 8ft 9s 6s 20 25 mph 1021.3mb 82f 82f
10:50am 7ft 9s 6s 18 22 mph 1021.5mb 82f 82f
9:50am 8ft 9s 6s 20 25 mph 1021.5mb 82f 82f
8:50am 7.5ft 9s 6s 18 22 mph 1021.5mb 82f 82f
7:50am 7.5ft 9s 6s 20 25 mph 1021.2mb 82f 82f
6:50am 7.5ft 9s 6s 20 22 mph 1020.7mb 82f 82f
5:50am 7ft 9s 6s 22 25 mph 1020.3mb 82f 82f
4:50am 7ft 9s 6s 20 25 mph 1019.9mb 82f 82f
3:50am 7.5ft 9s 6s 18 22 mph 1019.7mb 82f 82f
2:50am 7.5ft 8s 6s 20 22 mph 1020.2mb 82f 82f
1:50am 7.5ft 9s 6s 20 22 mph 1020.7mb 82f 82f
12:50am 7ft 9s 6s 18 22 mph 1021.5mb 82f 82f
Tue 06/30 11:50pm 7.5ft 9s 6s 20 25 mph 1022.1mb 82f 82f
10:50pm 7ft 8s 6s 20 25 mph 1022.3mb 82f 82f
9:50pm 7ft 8s 6s 20 25 mph 1022mb 82f 82f
8:50pm 7.5ft 8s 6s 20 22 mph 1021.4mb 83f 82f
7:50pm 7ft 9s 6s 18 22 mph 1020.7mb 83f 82f
6:50pm 7ft 9s 6s 20 22 mph 1020.5mb 83f 82f
5:50pm 7ft 8s 6s 16 22 mph 1020.2mb 83f 80f
4:50pm 7ft 9s 6s 18 22 mph 1019.7mb 83f 80f
3:50pm 7ft 9s 6s 16 18 mph 1019.8mb 83f 81f
2:50pm 7ft 8s 6s 18 22 mph 1020.4mb 83f 82f
1:50pm 7ft 9s 6s 16 20 mph 1020.7mb 83f 82f
12:50pm 7ft 8s 6s 18 22 mph 1021mb 83f 82f
11:50am 6.5ft 8s 6s 18 22 mph 1021.2mb 83f 82f
10:50am 7.5ft 8s 6s 18 22 mph 1021.1mb 83f 82f
9:50am 7.5ft 8s 6s 20 22 mph 1021.3mb 82f 82f
8:50am 6.5ft 8s 6s 20 25 mph 1021.5mb 82f 82f
7:50am 7.5ft 8s 6s 18 22 mph 1021.2mb 82f 82f
6:50am 7ft 8s 6s 22 27 mph 1020.3mb 82f 82f
5:50am 6.5ft 8s 6s 22 27 mph 1019.9mb 82f 81f
4:50am 7ft 8s 6s 16 18 mph 1020.1mb 82f 76f
3:50am 6.5ft 8s 6s 18 22 mph 1019.6mb 82f 80f
2:50am 6.5ft 9s 6s 20 25 mph 1019.6mb 82f 79f
1:50am 6.5ft 8s 6s 20 22 mph 1019.9mb 82f 82f
12:50am 7ft 8s 6s 20 25 mph 1020.3mb 83f 82f
Mon 06/29 11:50pm 6ft 8s 6s 18 20 mph 1021.3mb 83f 82f
10:50pm 6.5ft 8s 6s 20 22 mph 1021.4mb 83f 82f
9:50pm 6ft 8s 6s 18 22 mph 1021.4mb 83f 82f
8:50pm 6.5ft 8s 6s 18 22 mph 1021.2mb 83f 82f
7:50pm 6ft 8s 6s 18 20 mph 1020.8mb 83f 82f
6:50pm 6.5ft 9s 6s 18 20 mph 1020.4mb 83f 82f
5:50pm 6ft 8s 6s 18 22 mph 1020mb 83f 83f
4:50pm 6ft 7s 6s 18 20 mph 1019.8mb 83f 83f
3:50pm 6.5ft 6s 6s 16 18 mph 1020.3mb 83f 82f
2:50pm 6ft 8s 6s 16 20 mph 1020.9mb 83f 82f
1:50pm 6ft 8s 6s 18 22 mph 1021.1mb 83f 83f
12:50pm 6.5ft 8s 6s 18 22 mph 1021.8mb 83f 82f
11:50am 6.5ft 8s 6s 18 22 mph 1022mb 82f 82f
10:50am 6ft 8s 6s 20 25 mph 1021.9mb 82f 82f
9:50am 6ft 8s 6s 20 22 mph 1021.8mb 82f 82f
8:50am 6.5ft 9s 6s 20 22 mph 1021.9mb 82f 82f
7:50am 6.5ft 8s 6s 20 25 mph 1021.9mb 82f 82f
6:50am 6ft 9s 6s 20 25 mph 1021.6mb 82f 82f
5:50am 5.5ft 9s 6s 20 22 mph 1021.2mb 82f 82f
4:50am 6ft 8s 6s 20 22 mph 1020.7mb 82f 82f
3:50am 5.5ft 8s 6s 16 18 mph 1021mb 82f 82f
2:50am 5.5ft 9s 6s 16 20 mph 1021mb 82f 82f
1:50am 5.5ft 8s 6s 18 20 mph 1021.2mb 82f 82f
12:50am 5.5ft 8s 6s 20 22 mph 1021.7mb 82f 82f
Sun 06/28 11:50pm 6ft 8s 6s 18 20 mph 1022.2mb 82f 82f
10:50pm 6ft 8s 6s 18 20 mph 1022.4mb 83f 82f
9:50pm 6ft 9s 6s 18 22 mph 1022.4mb 83f 82f
8:50pm 5.5ft 9s 6s 16 20 mph 1021.9mb 83f 82f
7:50pm 5.5ft 8s 6s 16 20 mph 1021.5mb 83f 82f
6:50pm 6ft 8s 6s 18 20 mph 1021.2mb 83f 83f
5:50pm 6ft 8s 6s 16 20 mph 1020.6mb 83f 83f
4:50pm 6ft 8s 6s 13 16 mph 1020.5mb 83f 83f
3:50pm 6ft 8s 6s 16 18 mph 1020.6mb 83f 83f
2:50pm 6.5ft 8s 6s 16 18 mph 1020.7mb 83f 83f
1:50pm 6ft 8s 6s 16 18 mph 1021mb 83f 83f
12:50pm 7ft 8s 6s 16 20 mph 1021.2mb 83f 82f
11:50am 7ft 8s 6s 18 22 mph 1021.4mb 82f 83f
10:50am 7ft 8s 6s 18 22 mph 1021.5mb 82f 82f
9:50am 7.5ft 8s 6s 20 22 mph 1021.5mb 82f 83f
8:50am 7.5ft 8s 6s 20 25 mph 1021.3mb 82f 82f
7:50am 7ft 8s 6s 20 25 mph 1021.3mb 82f 82f
6:50am 6ft 8s 6s 20 25 mph 1020.9mb 82f 82f
5:50am 7ft 9s 6s 20 25 mph 1020.2mb 82f 82f
4:50am 7ft 8s 6s 20 22 mph 1020.2mb 82f 82f
3:50am 6ft 8s 6s 20 25 mph 1019.7mb 82f 82f
2:50am 6.5ft 8s 6s 20 25 mph 1019.7mb 82f 82f
1:50am 6ft 9s 6s 18 22 mph 1020.4mb 82f 82f
12:50am 6.5ft 8s 6s 18 20 mph 1020.8mb 82f 82f
Sat 06/27 11:50pm 6.5ft 9s 6s 18 22 mph 1021.4mb 82f 82f
10:50pm 6.5ft 8s 6s 18 20 mph 1021.8mb 82f 82f
9:50pm 6ft 8s 6s 16 20 mph 1021.8mb 82f 82f
8:50pm 6.5ft 8s 6s 18 20 mph 1021.5mb 82f 82f
7:50pm 6.5ft 8s 6s 18 20 mph 1021.1mb 82f 82f
6:50pm 6ft 8s 6s 18 20 mph 1020.7mb 82f 82f
5:50pm 7ft 8s 6s 18 20 mph 1020.3mb 82f 82f